Time;durP1;ratioP1;P1;durP2;ratioP2;P2;SDS_P1;SDS_P2;PMS_P1;PMS_P2;Temp;Humidity;BMP_temperature;BMP_pressure;BME280_temperature;BME280_humidity;BME280_pressure;Samples;Min_cycle;Max_cycle;Signal;HPM_P1;HPM_P2
2022/09/22 00:01:01;;;;;;;3.70;3.38;;;;;;;13.59;100.00;100282.25;5006315;28;20449;-79
2022/09/22 00:03:35;;;;;;;6.07;3.97;;;;;;;13.66;100.00;100284.19;5003694;28;20410;-80
2022/09/22 00:06:15;;;;;;;4.63;3.90;;;;;;;13.73;100.00;100284.41;5001466;28;20045;-78
2022/09/22 00:08:43;;;;;;;10.68;4.15;;;;;;;13.80;100.00;100285.50;5002959;28;20038;-79
2022/09/22 00:11:16;;;;;;;4.68;4.13;;;;;;;13.84;100.00;100284.25;5002548;28;20042;-79
2022/09/22 00:13:58;;;;;;;5.25;4.40;;;;;;;13.85;100.00;100288.56;5005651;28;20364;-79
2022/09/22 00:16:48;;;;;;;7.40;4.80;;;;;;;13.71;100.00;100275.78;5002221;28;20503;-80
2022/09/22 00:19:33;;;;;;;8.07;5.35;;;;;;;13.59;100.00;100287.56;5005760;28;20046;-79
2022/09/22 00:21:58;;;;;;;5.88;4.22;;;;;;;13.55;100.00;100283.53;5008236;28;20479;-79
2022/09/22 00:24:25;;;;;;;6.90;4.50;;;;;;;13.45;100.00;100279.06;5005995;28;20121;-79
2022/09/22 00:26:56;;;;;;;7.13;5.30;;;;;;;13.38;100.00;100280.63;5003755;28;20081;-80
2022/09/22 00:29:22;;;;;;;;;;;;;;;13.29;100.00;100278.84;4986737;28;20100;-80
2022/09/22 00:31:48;;;;;;;6.18;5.20;;;;;;;13.21;100.00;100276.03;5007758;28;19951;-80
2022/09/22 00:34:17;;;;;;;7.80;6.05;;;;;;;13.18;100.00;100278.16;5003735;28;20042;-79
2022/09/22 00:36:43;;;;;;;9.82;5.38;;;;;;;13.15;100.00;100268.66;5002431;28;20250;-79
2022/09/22 00:39:08;;;;;;;7.18;5.07;;;;;;;13.18;100.00;100278.16;5002882;28;20034;-80
2022/09/22 00:41:37;;;;;;;7.03;6.07;;;;;;;13.13;100.00;100275.09;5000516;28;20681;-79
2022/09/22 00:44:20;;;;;;;6.97;5.65;;;;;;;13.10;100.00;100276.19;5002815;28;20077;-80
2022/09/22 00:46:59;;;;;;;6.75;6.03;;;;;;;13.10;100.00;100269.06;5000218;28;20141;-81
2022/09/22 00:49:49;;;;;;;8.00;7.05;;;;;;;13.09;100.00;100263.91;5003753;28;20092;-80
2022/09/22 00:52:21;;;;;;;8.02;6.53;;;;;;;13.15;100.00;100268.66;5003790;28;20180;-80
2022/09/22 00:54:49;;;;;;;7.72;6.20;;;;;;;13.18;100.00;100268.41;5002591;28;20026;-79
2022/09/22 00:57:21;;;;;;;7.03;5.70;;;;;;;13.22;100.00;100275.06;5003327;28;20043;-80
2022/09/22 00:59:49;;;;;;;;;;;;;;;13.26;100.00;100270.31;4999543;28;20077;-80
2022/09/22 01:02:14;;;;;;;9.60;6.20;;;;;;;13.29;100.00;100268.22;4999118;28;19925;-79
2022/09/22 01:04:41;;;;;;;8.35;5.13;;;;;;;13.34;100.00;100268.63;5004065;28;20034;-79
2022/09/22 01:07:08;;;;;;;7.10;5.43;;;;;;;13.38;100.00;100270.00;4989301;28;20498;-80
2022/09/22 01:09:33;;;;;;;5.85;5.28;;;;;;;13.40;100.00;100262.75;5003674;28;20066;-80
2022/09/22 01:12:01;;;;;;;7.15;5.70;;;;;;;13.37;100.00;100263.03;4999532;28;20474;-80
2022/09/22 01:14:31;;;;;;;5.88;5.30;;;;;;;13.32;100.00;100259.16;5005281;28;20029;-81
2022/09/22 01:16:56;;;;;;;9.20;5.25;;;;;;;13.30;100.00;100255.81;5002612;28;20037;-81
2022/09/22 01:19:43;;;;;;;6.53;5.60;;;;;;;13.26;100.00;100260.56;5002106;28;20045;-81
2022/09/22 01:22:33;;;;;;;7.20;5.93;;;;;;;13.22;100.00;100259.19;5002428;28;20041;-79
2022/09/22 01:25:26;;;;;;;5.93;5.25;;;;;;;13.24;100.00;100251.94;5006047;28;20026;-81
2022/09/22 01:28:13;;;;;;;7.15;5.05;;;;;;;13.27;100.00;100246.31;5000839;28;20038;-81
2022/09/22 01:30:56;;;;;;;6.20;5.00;;;;;;;13.33;100.00;100243.09;4998536;28;20038;-81
2022/09/22 01:33:28;;;;;;;10.82;5.70;;;;;;;13.37;100.00;100247.13;5000877;28;20031;-81
2022/09/22 01:36:05;;;;;;;6.75;6.10;;;;;;;13.36;100.00;100242.84;5004534;28;20042;-82
2022/09/22 01:38:44;;;;;;;6.43;5.78;;;;;;;13.34;100.00;100247.44;5003312;28;20392;-81
2022/09/22 01:41:34;;;;;;;6.47;5.60;;;;;;;13.35;100.00;100242.97;5005341;28;20045;-81
2022/09/22 01:44:06;;;;;;;8.17;6.13;;;;;;;13.40;100.00;100243.38;5003225;28;20034;-80
2022/09/22 01:46:46;;;;;;;8.00;6.05;;;;;;;13.48;100.00;100246.97;4969622;28;20112;-80
2022/09/22 01:49:14;;;;;;;8.30;6.35;;;;;;;13.57;100.00;100247.91;5003590;28;20038;-81
2022/09/22 01:51:51;;;;;;;7.93;7.22;;;;;;;13.62;100.00;100244.81;4999346;28;20364;-81
2022/09/22 01:54:44;;;;;;;10.20;8.40;;;;;;;13.68;100.00;100249.53;4981937;28;20054;-79
2022/09/22 01:57:30;;;;;;;7.60;6.88;;;;;;;13.66;100.00;100247.06;5002027;28;20042;-79
2022/09/22 02:00:02;;;;;;;10.27;6.47;;;;;;;13.63;100.00;100246.50;5003504;28;20022;-79
2022/09/22 02:03:13;;;;;;;9.80;7.10;;;;;;;13.60;100.00;100242.34;4999157;28;20598;-79
2022/09/22 02:05:54;;;;;;;7.90;7.00;;;;;;;13.56;100.00;100240.09;4986340;28;20045;-80
2022/09/22 02:08:34;;;;;;;8.32;6.85;;;;;;;13.57;100.00;100236.47;5002586;28;20037;-79
2022/09/22 02:11:08;;;;;;;7.68;7.00;;;;;;;13.57;100.00;100236.47;4997390;28;20046;-80
2022/09/22 02:13:34;;;;;;;9.50;7.13;;;;;;;13.59;100.00;100234.53;5000548;28;20102;-80
2022/09/22 02:16:00;;;;;;;8.75;7.00;;;;;;;13.64;100.00;100225.13;5002255;28;20030;-79
2022/09/22 02:18:43;;;;;;;8.98;6.95;;;;;;;13.69;100.00;100222.03;5007414;28;20483;-79
2022/09/22 02:21:10;;;;;;;9.90;7.30;;;;;;;13.72;100.00;100224.41;5002847;28;20099;-81
2022/09/22 02:23:36;;;;;;;10.57;7.15;;;;;;;13.72;100.00;100229.72;5006216;28;20038;-80
2022/09/22 02:26:04;;;;;;;9.20;6.65;;;;;;;13.73;100.00;100231.38;5001988;28;20478;-79
2022/09/22 02:28:32;;;;;;;7.93;6.93;;;;;;;13.73;100.00;100236.69;5004913;28;20030;-79
2022/09/22 02:31:00;;;;;;;8.00;7.32;;;;;;;13.73;100.00;100223.41;5005906;28;20029;-79
2022/09/22 02:33:29;;;;;;;13.20;7.20;;;;;;;13.73;100.00;100223.41;5007763;28;20034;-79
2022/09/22 02:36:21;;;;;;;8.75;7.35;;;;;;;13.66;100.00;100219.69;5008957;28;20046;-79
2022/09/22 02:38:51;;;;;;;8.68;7.15;;;;;;;13.59;100.00;100213.31;5005546;28;20902;-78
2022/09/22 02:41:26;;;;;;;11.25;7.60;;;;;;;13.59;100.00;100213.31;5009555;28;20049;-79
2022/09/22 02:44:03;;;;;;;9.68;7.65;;;;;;;13.62;100.00;100213.00;5004344;28;20031;-80
2022/09/22 02:46:42;;;;;;;8.57;7.50;;;;;;;13.66;100.00;100214.41;4982719;28;20030;-78
2022/09/22 02:49:15;;;;;;;7.72;7.10;;;;;;;13.67;100.00;100206.28;5007807;28;20042;-79
2022/09/22 02:51:42;;;;;;;10.00;7.47;;;;;;;13.68;100.00;100217.72;5003965;28;20032;-78
2022/09/22 02:54:07;;;;;;;8.35;7.65;;;;;;;13.67;100.00;100221.34;5005610;28;20061;-77
2022/09/22 02:56:33;;;;;;;8.23;7.50;;;;;;;13.66;100.00;100214.41;5003881;28;20487;-77
2022/09/22 02:58:59;;;;;;;8.02;7.28;;;;;;;13.66;100.00;100214.41;5007551;28;20501;-78
2022/09/22 03:01:24;;;;;;;10.43;7.85;;;;;;;13.67;100.00;100213.38;5007442;28;20044;-80
2022/09/22 03:03:50;;;;;;;10.15;7.72;;;;;;;13.65;100.00;100212.72;5003273;28;20030;-78
2022/09/22 03:06:15;;;;;;;8.55;7.72;;;;;;;13.65;100.00;100207.41;5007181;28;20030;-79
2022/09/22 03:08:41;;;;;;;11.88;7.18;;;;;;;13.64;100.00;100211.03;4987985;28;20088;-79
2022/09/22 03:11:06;;;;;;;7.28;6.65;;;;;;;13.65;100.00;100215.38;5003788;28;20038;-81
2022/09/22 03:13:32;;;;;;;8.00;6.97;;;;;;;13.65;100.00;100212.72;5003996;28;20450;-78
2022/09/22 03:15:57;;;;;;;10.02;7.03;;;;;;;13.64;100.00;100211.03;5003258;28;20030;-78
2022/09/22 03:18:23;;;;;;;9.52;6.80;;;;;;;13.64;100.00;100211.03;5004484;28;20092;-78
2022/09/22 03:20:48;;;;;;;7.93;7.13;;;;;;;13.62;100.00;100207.69;5003794;28;20062;-80
2022/09/22 03:23:13;;;;;;;8.80;6.70;;;;;;;13.62;100.00;100207.69;5004156;28;20506;-79
2022/09/22 03:25:39;;;;;;;8.90;6.80;;;;;;;13.64;100.00;100211.03;4985293;28;20031;-79
2022/09/22 03:28:05;;;;;;;8.88;6.45;;;;;;;13.64;100.00;100211.03;5002658;28;20061;-80
2022/09/22 03:30:30;;;;;;;7.75;6.95;;;;;;;13.63;100.00;100218.16;5002145;28;20022;-81
2022/09/22 03:32:56;;;;;;;7.90;7.10;;;;;;;13.58;100.00;100211.63;4989074;28;20572;-80
2022/09/22 03:35:21;;;;;;;9.27;7.18;;;;;;;13.50;100.00;100215.84;4973592;28;20057;-80
2022/09/22 03:37:47;;;;;;;12.65;6.60;;;;;;;13.43;100.00;100208.63;5001394;28;20485;-81
2022/09/22 03:40:12;;;;;;;10.07;6.63;;;;;;;13.34;100.00;100215.63;5004650;28;20050;-79
2022/09/22 03:42:38;;;;;;;6.70;6.10;;;;;;;13.28;100.00;100216.19;5003189;28;20048;-80
2022/09/22 03:45:04;;;;;;;12.70;6.88;;;;;;;13.22;100.00;100208.81;5001834;28;20114;-79
2022/09/22 03:47:30;;;;;;;10.80;7.30;;;;;;;13.14;100.00;100203.38;5002783;28;20060;-79
2022/09/22 03:49:55;;;;;;;7.35;6.53;;;;;;;13.11;100.00;100206.31;5006633;28;20033;-78
2022/09/22 03:52:21;;;;;;;10.38;7.55;;;;;;;13.05;100.00;100210.38;5006192;28;20038;-79
2022/09/22 03:54:46;;;;;;;7.65;6.93;;;;;;;13.03;100.00;100206.19;5005570;28;20691;-79
2022/09/22 03:57:12;;;;;;;8.23;6.93;;;;;;;13.01;100.00;100208.16;5004274;28;20066;-78
2022/09/22 03:59:37;;;;;;;7.28;6.63;;;;;;;12.97;100.00;100201.44;5003168;28;20134;-79
2022/09/22 04:02:03;;;;;;;7.88;7.03;;;;;;;12.92;100.00;100203.69;5003430;28;20042;-80
2022/09/22 04:04:29;;;;;;;8.07;6.40;;;;;;;12.89;100.00;100206.63;5003551;28;20026;-80
2022/09/22 04:06:54;;;;;;;6.82;6.32;;;;;;;12.81;100.00;100206.50;5003855;28;20029;-79
2022/09/22 04:09:20;;;;;;;7.60;6.43;;;;;;;12.75;100.00;100207.06;5002271;28;20399;-79
2022/09/22 04:11:46;;;;;;;7.10;6.40;;;;;;;12.69;100.00;100209.28;5001960;28;20038;-79
2022/09/22 04:14:11;;;;;;;7.88;7.07;;;;;;;12.64;100.00;100214.19;5005604;28;20032;-80
2022/09/22 04:16:38;;;;;;;7.75;6.95;;;;;;;12.59;100.00;100208.47;5004187;28;20062;-79
2022/09/22 04:19:04;;;;;;;7.80;7.03;;;;;;;12.58;100.00;100212.09;5001612;28;20038;-79
2022/09/22 04:21:30;;;;;;;7.38;6.50;;;;;;;12.57;100.00;100213.06;5002465;28;20099;-79
2022/09/22 04:23:56;;;;;;;7.70;7.00;;;;;;;12.59;100.00;100208.47;5005938;28;20030;-79
2022/09/22 04:26:22;;;;;;;7.40;6.75;;;;;;;12.62;100.00;100208.19;5003985;28;20041;-81
2022/09/22 04:28:47;;;;;;;10.52;6.20;;;;;;;12.64;100.00;100216.81;5005063;28;20036;-83
2022/09/22 04:31:13;;;;;;;6.22;5.72;;;;;;;12.62;100.00;100213.47;5002327;28;20065;-80
2022/09/22 04:33:38;;;;;;;7.88;6.30;;;;;;;12.60;100.00;100214.59;4983271;28;20499;-81
2022/09/22 04:36:04;;;;;;;6.45;5.85;;;;;;;12.61;100.00;100218.91;4998969;28;20034;-87
2022/09/22 04:38:29;;;;;;;6.57;5.28;;;;;;;12.59;100.00;100219.06;5003990;28;20034;-81
2022/09/22 04:40:56;;;;;;;5.97;5.38;;;;;;;12.55;100.00;100217.66;5006780;28;20136;-81
2022/09/22 04:43:21;;;;;;;6.13;4.72;;;;;;;12.49;100.00;100210.25;5002387;28;20121;-82
2022/09/22 04:45:47;;;;;;;6.10;5.10;;;;;;;12.45;100.00;100214.16;4988529;28;20117;-81
2022/09/22 04:48:14;;;;;;;7.85;5.03;;;;;;;12.43;100.00;100210.81;5001895;28;20045;-81
2022/09/22 04:50:39;;;;;;;7.10;4.82;;;;;;;12.42;100.00;100211.81;4999918;28;20033;-81
2022/09/22 04:53:05;;;;;;;6.00;4.82;;;;;;;12.39;100.00;100204.13;5001000;28;20494;-82
2022/09/22 04:55:31;;;;;;;5.53;5.03;;;;;;;12.40;100.00;100211.09;5001896;28;20383;-81
2022/09/22 04:57:57;;;;;;;6.13;4.70;;;;;;;12.42;100.00;100210.97;5003511;28;20057;-81
2022/09/22 05:00:25;;;;;;;6.25;4.40;;;;;;;12.46;100.00;100207.91;5001794;28;20117;-82
2022/09/22 05:02:51;;;;;;;5.22;4.70;;;;;;;12.52;100.00;100211.81;5002120;28;20066;-81
2022/09/22 05:05:17;;;;;;;5.53;4.80;;;;;;;12.56;100.00;100218.47;5006091;28;20121;-82
2022/09/22 05:07:46;;;;;;;5.63;4.50;;;;;;;12.60;100.00;100223.38;4983236;28;20066;-82
2022/09/22 05:10:19;;;;;;;7.53;4.38;;;;;;;12.64;100.00;100214.19;5002072;28;20038;-81
2022/09/22 05:12:45;;;;;;;5.93;4.80;;;;;;;12.68;100.00;100228.81;4999470;28;20648;-82
2022/09/22 05:15:12;;;;;;;4.97;4.57;;;;;;;12.70;100.00;100226.88;4999764;28;20041;-84
2022/09/22 05:17:49;;;;;;;6.45;4.75;;;;;;;12.73;100.00;100226.56;4999262;28;20057;-81
2022/09/22 05:20:14;;;;;;;6.50;4.78;;;;;;;12.73;100.00;100231.88;4996621;28;20559;-80
2022/09/22 05:22:41;;;;;;;6.05;5.13;;;;;;;12.66;100.00;100230.75;4997280;28;20145;-82
2022/09/22 05:25:09;;;;;;;5.65;5.15;;;;;;;12.58;100.00;100233.28;4983225;28;20052;-80
2022/09/22 05:27:36;;;;;;;5.88;5.25;;;;;;;12.54;100.00;100239.81;5001735;28;20029;-80
2022/09/22 05:30:04;;;;;;;7.68;5.43;;;;;;;12.56;100.00;100240.50;4997366;28;20137;-79
2022/09/22 05:32:29;;;;;;;9.98;6.03;;;;;;;12.57;100.00;100242.19;5003463;28;20040;-79
2022/09/22 05:34:54;;;;;;;14.40;5.80;;;;;;;12.52;100.00;100233.81;4999743;28;20160;-79
2022/09/22 05:37:20;;;;;;;6.65;5.45;;;;;;;12.50;100.00;100241.06;4983949;28;20041;-78
2022/09/22 05:39:52;;;;;;;12.93;5.80;;;;;;;12.47;100.00;100236.06;5000155;28;20026;-77
2022/09/22 05:42:22;;;;;;;6.50;5.85;;;;;;;12.34;100.00;100235.47;5001209;28;20038;-77
2022/09/22 05:44:48;;;;;;;6.45;5.40;;;;;;;12.25;100.00;100228.38;5004091;28;20021;-78
2022/09/22 05:47:13;;;;;;;7.57;6.38;;;;;;;12.09;100.00;100233.34;5002151;28;20030;-78
2022/09/22 05:49:39;;;;;;;6.82;5.70;;;;;;;12.09;100.00;100235.97;5002127;28;20030;-78
2022/09/22 05:52:05;;;;;;;8.85;6.00;;;;;;;12.10;100.00;100235.84;5001920;28;20053;-78
2022/09/22 05:54:31;;;;;;;10.23;5.95;;;;;;;12.16;100.00;100237.13;4973739;28;20030;-75
2022/09/22 05:56:57;;;;;;;7.57;6.50;;;;;;;12.17;100.00;100231.69;5009450;28;20034;-78
2022/09/22 05:59:26;;;;;;;9.85;7.60;;;;;;;12.23;100.00;100227.66;5011467;28;20593;-77
2022/09/22 06:01:58;;;;;;;7.80;6.93;;;;;;;12.28;100.00;100233.38;5003719;28;20041;-78
2022/09/22 06:04:23;;;;;;;9.82;6.97;;;;;;;12.31;100.00;100230.47;5003689;28;20061;-78
2022/09/22 06:06:49;;;;;;;8.15;7.35;;;;;;;12.38;100.00;100230.72;5000263;28;20128;-77
2022/09/22 06:09:14;;;;;;;10.05;7.32;;;;;;;12.43;100.00;100229.34;5003431;28;20042;-77
2022/09/22 06:11:40;;;;;;;11.10;6.90;;;;;;;12.46;100.00;100223.78;5002655;28;20141;-75
2022/09/22 06:14:05;;;;;;;9.73;7.32;;;;;;;12.51;100.00;100231.31;5005883;28;20385;-77
2022/09/22 06:16:31;;;;;;;9.80;6.97;;;;;;;12.50;100.00;100230.47;4999384;28;20483;-76
2022/09/22 06:18:56;;;;;;;9.73;6.55;;;;;;;12.47;100.00;100233.41;5007760;28;20048;-77
2022/09/22 06:21:24;;;;;;;8.77;6.60;;;;;;;12.45;100.00;100231.84;5008831;28;20367;-76
2022/09/22 06:23:50;;;;;;;12.48;6.90;;;;;;;12.42;100.00;100235.63;5006543;28;20034;-78
2022/09/22 06:26:16;;;;;;;8.85;6.82;;;;;;;12.41;100.00;100239.25;5005454;28;20081;-77
2022/09/22 06:28:41;;;;;;;7.30;5.85;;;;;;;12.44;100.00;100240.78;5000875;28;20120;-78
2022/09/22 06:31:07;;;;;;;7.10;6.50;;;;;;;12.47;100.00;100241.34;5005550;28;20042;-77
2022/09/22 06:33:34;;;;;;;7.80;6.00;;;;;;;12.54;100.00;100245.13;4986745;28;20038;-77
2022/09/22 06:36:00;;;;;;;8.13;6.35;;;;;;;12.60;100.00;100252.50;5005266;28;20031;-77
2022/09/22 06:38:26;;;;;;;9.25;6.63;;;;;;;12.68;100.00;100249.97;5005285;28;20463;-78
2022/09/22 06:40:57;;;;;;;8.23;5.95;;;;;;;12.78;100.00;100249.16;5008565;28;20076;-77
2022/09/22 06:43:23;;;;;;;7.68;6.32;;;;;;;12.87;100.00;100257.09;5001496;28;20045;-76
2022/09/22 06:45:50;;;;;;;8.65;6.28;;;;;;;12.96;100.00;100255.44;4984395;28;20042;-77
2022/09/22 06:48:16;;;;;;;7.75;6.50;;;;;;;13.02;100.00;100257.50;4978139;28;20045;-78
2022/09/22 06:50:51;;;;;;;6.60;5.88;;;;;;;13.13;100.00;100258.19;5004989;28;20113;-78
2022/09/22 06:53:20;;;;;;;10.30;6.18;;;;;;;13.22;100.00;100259.19;5005637;28;20045;-78
2022/09/22 06:55:46;;;;;;;10.48;6.10;;;;;;;13.28;100.00;100258.59;5002158;28;20058;-78
2022/09/22 06:58:13;;;;;;;11.50;6.28;;;;;;;13.36;100.00;100263.19;5005084;28;20030;-77
2022/09/22 07:00:41;;;;;;;7.28;5.35;;;;;;;13.42;100.00;100263.47;5000170;28;20133;-78
2022/09/22 07:03:21;;;;;;;6.85;6.15;;;;;;;13.49;100.00;100267.19;5005297;28;20065;-78
2022/09/22 07:05:56;;;;;;;6.72;6.22;;;;;;;13.56;100.00;100261.31;5004834;28;20039;-78
2022/09/22 07:08:22;;;;;;;6.45;5.85;;;;;;;13.65;100.00;100263.09;5004915;28;20042;-78
2022/09/22 07:10:55;;;;;;;6.60;6.00;;;;;;;13.73;100.00;100263.19;5005032;28;20030;-78
2022/09/22 07:13:22;;;;;;;5.90;5.40;;;;;;;13.79;100.00;100263.44;5008340;28;20133;-78
2022/09/22 07:15:47;;;;;;;6.82;5.40;;;;;;;13.86;100.00;100266.38;5003265;28;20081;-79
2022/09/22 07:18:14;;;;;;;7.03;5.80;;;;;;;13.92;100.00;100268.44;5004945;28;20486;-77
2022/09/22 07:20:39;;;;;;;6.78;5.78;;;;;;;13.99;100.00;100277.47;4985333;28;20053;-77
2022/09/22 07:23:17;;;;;;;5.63;5.13;;;;;;;14.03;100.00;100270.88;5006361;28;20461;-79
2022/09/22 07:25:55;;;;;;;6.03;5.53;;;;;;;14.04;98.56;100271.72;4988532;28;20489;-79
2022/09/22 07:28:22;;;;;;;5.47;4.97;;;;;;;14.05;98.60;100268.94;5005157;28;20109;-80
2022/09/22 07:30:48;;;;;;;7.63;5.15;;;;;;;14.08;98.23;100268.63;5002493;28;20030;-76
2022/09/22 07:33:13;;;;;;;5.70;5.03;;;;;;;14.11;99.11;100268.34;5004682;28;20406;-78
2022/09/22 07:35:39;;;;;;;6.15;5.00;;;;;;;14.18;98.14;100264.13;5002939;28;20053;-78
2022/09/22 07:38:05;;;;;;;13.23;5.32;;;;;;;14.24;98.84;100268.84;5001339;28;20400;-78
2022/09/22 07:40:31;;;;;;;5.70;5.22;;;;;;;14.28;97.19;100264.88;4997778;28;20141;-78
2022/09/22 07:42:56;;;;;;;5.38;4.82;;;;;;;14.33;96.68;100273.22;4981155;28;20042;-77
2022/09/22 07:45:22;;;;;;;6.18;4.80;;;;;;;14.37;95.24;100270.28;4988540;28;20390;-78
2022/09/22 07:50:31;;;;;;;9.15;5.25;;;;;;;14.44;94.25;100263.41;5000220;28;20116;-78
2022/09/22 07:52:57;;;;;;;8.77;5.78;;;;;;;14.47;94.32;100263.97;4999783;28;20448;-77
2022/09/22 07:55:23;;;;;;;5.53;5.05;;;;;;;14.45;93.50;100276.53;5003043;28;20474;-77
2022/09/22 07:57:59;;;;;;;5.18;4.57;;;;;;;14.46;93.91;100275.56;5003850;28;20113;-76
2022/09/22 08:00:27;;;;;;;5.85;5.22;;;;;;;14.48;94.22;100276.25;5001114;28;20030;-75
2022/09/22 08:02:56;;;;;;;5.10;4.70;;;;;;;14.52;94.26;100266.16;5004888;28;20048;-75
2022/09/22 08:05:24;;;;;;;8.07;6.03;;;;;;;14.56;94.46;100265.69;5002312;28;20038;-78
2022/09/22 08:07:50;;;;;;;6.05;5.43;;;;;;;14.60;93.27;100267.09;5004865;28;20080;-77
2022/09/22 08:10:17;;;;;;;5.65;5.18;;;;;;;14.66;93.20;100268.31;5003915;28;20041;-77
2022/09/22 08:12:43;;;;;;;7.57;4.90;;;;;;;14.69;92.03;100267.97;5005802;28;20041;-78
2022/09/22 08:15:10;;;;;;;6.88;4.88;;;;;;;14.77;91.89;100270.72;4997447;28;20387;-78
2022/09/22 08:17:38;;;;;;;6.60;4.47;;;;;;;14.86;91.70;100269.81;5003449;28;20022;-78
2022/09/22 08:20:04;;;;;;;5.85;4.88;;;;;;;14.94;91.64;100267.22;5001347;28;20048;-77
2022/09/22 08:22:29;;;;;;;6.70;4.50;;;;;;;15.02;91.12;100271.78;4981485;28;20034;-78
2022/09/22 08:24:55;;;;;;;5.78;4.53;;;;;;;15.13;90.81;100255.59;5007217;28;20160;-77
2022/09/22 08:27:21;;;;;;;5.05;3.90;;;;;;;15.20;89.33;100264.59;5002070;28;20026;-77
2022/09/22 08:29:46;;;;;;;4.65;4.25;;;;;;;15.27;87.55;100270.13;5004971;28;20526;-78
2022/09/22 08:32:16;;;;;;;6.15;4.00;;;;;;;15.32;87.97;100270.47;5003090;28;20029;-78
2022/09/22 08:34:41;;;;;;;5.18;4.40;;;;;;;15.37;87.98;100269.06;5001872;28;20030;-78
2022/09/22 08:37:08;;;;;;;4.20;3.90;;;;;;;15.44;87.25;100274.56;4999044;28;20321;-75
2022/09/22 08:39:34;;;;;;;6.63;4.10;;;;;;;15.50;86.94;100268.59;5006319;28;20022;-78
2022/09/22 08:42:13;;;;;;;4.78;3.30;;;;;;;15.58;86.74;100268.69;4983921;28;20039;-78
2022/09/22 08:44:50;;;;;;;5.22;4.18;;;;;;;15.64;86.09;100272.56;4985216;28;20045;-76
2022/09/22 08:51:50;;;;;;;4.97;4.25;;;;;;;15.67;86.12;100270.41;5003299;28;20100;-79
2022/09/22 08:53:21;;;;;;;5.00;4.60;;;;;;;15.78;83.99;100272.81;4998280;28;20046;-78
2022/09/22 08:56:11;;;;;;;4.35;3.95;;;;;;;15.86;83.47;100267.50;5003602;28;20038;-77
2022/09/22 08:58:47;;;;;;;5.78;4.20;;;;;;;15.96;84.88;100265.56;5002999;28;20104;-77
2022/09/22 09:01:51;;;;;;;5.90;4.95;;;;;;;16.08;84.56;100268.75;5000956;28;20053;-79
2022/09/22 09:04:51;;;;;;;5.00;4.38;;;;;;;16.17;83.90;100266.97;4983358;28;20073;-78
2022/09/22 09:07:36;;;;;;;;;;;;;;;16.22;82.16;100269.97;5006022;28;20042;-77
2022/09/22 09:10:25;;;;;;;8.38;4.15;;;;;;;16.29;81.58;100265.69;5000992;28;19939;-77
2022/09/22 09:13:29;;;;;;;4.07;3.75;;;;;;;16.33;78.50;100278.50;4976610;28;20149;-77
2022/09/22 09:15:57;;;;;;;4.22;3.40;;;;;;;16.37;76.87;100279.03;4907965;29;20036;-79
2022/09/22 09:18:30;;;;;;;4.07;3.40;;;;;;;16.40;76.89;100278.69;4908455;29;20048;-78
2022/09/22 09:20:58;;;;;;;5.05;3.05;;;;;;;16.45;74.91;100271.03;4908392;29;20054;-78
2022/09/22 09:23:33;;;;;;;3.17;2.85;;;;;;;16.48;73.27;100276.06;4905056;29;20140;-84
2022/09/22 09:26:01;;;;;;;4.43;2.38;;;;;;;16.50;71.92;100279.38;4906099;29;20036;-78
2022/09/22 09:28:34;;;;;;;3.13;2.83;;;;;;;16.53;71.05;100273.75;4908876;29;20080;-78
2022/09/22 09:31:17;;;;;;;3.17;2.88;;;;;;;16.56;70.85;100276.06;4909432;29;20386;-78
2022/09/22 09:33:52;;;;;;;6.95;2.30;;;;;;;16.56;65.58;100268.06;4908680;29;20044;-76
2022/09/22 09:36:21;;;;;;;3.80;2.30;;;;;;;16.55;66.01;100271.72;4906022;29;20118;-77
2022/09/22 09:38:53;;;;;;;3.50;2.22;;;;;;;16.57;65.59;100271.56;4910983;29;20036;-77
2022/09/22 09:41:30;;;;;;;3.13;1.80;;;;;;;16.57;63.32;100263.56;4907982;29;20086;-76
2022/09/22 09:43:56;;;;;;;2.03;1.77;;;;;;;16.57;58.30;100264.41;4905495;29;20045;-77
2022/09/22 09:46:40;;;;;;;5.85;2.10;;;;;;;16.61;60.52;100268.44;4905073;29;20579;-78
2022/09/22 09:49:19;;;;;;;3.33;1.70;;;;;;;16.65;61.42;100256.47;4920973;28;20554;-77
2022/09/22 09:51:49;;;;;;;4.50;2.17;;;;;;;16.69;61.62;100257.81;5004606;28;20025;-78
2022/09/22 09:54:16;;;;;;;3.83;2.00;;;;;;;16.76;61.93;100258.81;5000565;28;20042;-76
2022/09/22 09:57:05;;;;;;;2.35;1.98;;;;;;;16.83;62.68;100252.81;5001791;28;20021;-76
2022/09/22 10:02:20;;;;;;;1.80;1.70;;;;;;;16.98;61.47;100248.47;5004783;28;20116;-77
2022/09/22 10:04:55;;;;;;;3.30;1.83;;;;;;;17.02;61.44;100244.50;5000395;28;20099;-77
2022/09/22 10:07:27;;;;;;;2.70;1.75;;;;;;;17.07;62.15;100240.34;5003648;28;20383;-77
2022/09/22 10:09:55;;;;;;;3.28;1.90;;;;;;;17.13;61.27;100238.81;4997746;28;20046;-78
2022/09/22 10:12:31;;;;;;;2.70;2.38;;;;;;;17.22;60.64;100232.47;5000299;28;20030;-78
2022/09/22 10:15:00;;;;;;;1.80;1.70;;;;;;;17.27;60.61;100232.78;4999398;28;20053;-82
2022/09/22 10:17:28;;;;;;;1.63;1.52;;;;;;;17.31;61.71;100231.47;5002111;28;20143;-78
2022/09/22 10:20:15;;;;;;;3.63;1.92;;;;;;;17.46;60.01;100224.41;5004270;28;20057;-76
2022/09/22 10:22:41;;;;;;;11.00;1.92;;;;;;;17.51;60.50;100222.06;5000908;28;20116;-76
2022/09/22 10:25:36;;;;;;;2.38;1.88;;;;;;;17.50;59.74;100215.06;5001538;28;20034;-74
2022/09/22 10:28:08;;;;;;;1.98;1.77;;;;;;;17.52;58.51;100213.06;4985296;28;20392;-74
2022/09/22 10:30:37;;;;;;;3.10;2.22;;;;;;;17.53;58.56;100216.56;4997431;28;20042;-75
2022/09/22 10:33:17;;;;;;;1.45;1.40;;;;;;;17.54;59.21;100207.56;5000929;28;20243;-74
2022/09/22 10:36:06;;;;;;;2.45;1.75;;;;;;;17.58;59.45;100206.22;5000837;28;20391;-74
2022/09/22 10:38:36;;;;;;;2.80;1.92;;;;;;;17.63;57.59;100195.03;4998507;28;20041;-74
2022/09/22 10:41:06;;;;;;;5.97;1.80;;;;;;;17.65;57.33;100198.38;5001147;28;20102;-74
2022/09/22 10:43:42;;;;;;;2.17;2.03;;;;;;;17.73;57.10;100193.03;5005170;28;20032;-74
2022/09/22 10:46:42;;;;;;;2.25;1.50;;;;;;;17.80;56.33;100193.97;5001253;28;20104;-74
2022/09/22 10:49:34;;;;;;;1.38;1.17;;;;;;;17.92;54.25;100198.75;5005712;28;20065;-74
2022/09/22 10:52:14;;;;;;;1.40;1.30;;;;;;;18.03;53.04;100194.84;5005750;28;20034;-74
2022/09/22 10:54:41;;;;;;;2.35;1.58;;;;;;;17.99;53.60;100190.88;5008538;28;20053;-75
2022/09/22 10:57:25;;;;;;;4.82;2.00;;;;;;;18.00;53.50;100192.53;5009305;28;20037;-76
2022/09/22 11:00:12;;;;;;;1.95;1.48;;;;;;;18.05;53.86;100179.50;5006927;28;20084;-76
2022/09/22 11:02:59;;;;;;;2.60;1.75;;;;;;;18.14;54.60;100186.47;4998442;28;20169;-75
2022/09/22 11:14:08;;;;;;;1.40;1.25;;;;;;;18.48;54.95;100161.19;5005985;28;20034;-75
2022/09/22 11:17:09;;;;;;;2.70;1.30;;;;;;;18.58;53.95;100161.78;5002815;28;20042;-75
2022/09/22 11:19:40;;;;;;;2.10;1.60;;;;;;;18.66;53.16;100162.56;5000930;28;20038;-74
2022/09/22 11:22:33;;;;;;;2.83;1.60;;;;;;;18.73;53.62;100160.00;4999443;28;20030;-74
2022/09/22 11:25:33;;;;;;;6.97;1.70;;;;;;;18.81;53.86;100167.94;5005798;28;20038;-73
2022/09/22 11:28:22;;;;;;;2.90;1.30;;;;;;;18.93;53.74;100161.16;4988368;28;20104;-74
2022/09/22 11:30:53;;;;;;;1.70;1.38;;;;;;;19.09;52.60;100150.28;5004203;28;20054;-75
2022/09/22 11:33:24;;;;;;;;;;;;;;;19.22;51.37;100155.84;5004273;28;20034;-74
2022/09/22 11:36:01;;;;;;;1.38;1.27;;;;;;;19.31;51.34;100147.72;5006975;28;19921;-75
2022/09/22 11:38:50;;;;;;;3.65;1.80;;;;;;;19.32;49.63;100138.69;5002991;28;20048;-75
2022/09/22 11:41:42;;;;;;;2.15;1.35;;;;;;;19.33;51.65;100135.81;5002860;28;20166;-76
2022/09/22 11:44:34;;;;;;;1.55;1.35;;;;;;;19.44;51.48;100126.50;5003942;28;20423;-76
2022/09/22 11:47:24;;;;;;;3.38;1.40;;;;;;;19.60;51.60;100121.81;5003222;28;20038;-74
2022/09/22 11:49:59;;;;;;;2.10;1.77;;;;;;;19.81;51.02;100120.16;5005411;28;20026;-75
2022/09/22 11:52:46;;;;;;;7.55;1.70;;;;;;;19.91;50.81;100113.50;5003638;28;20470;-75
2022/09/22 11:55:31;;;;;;;2.33;1.92;;;;;;;20.03;49.93;100111.13;4986364;28;20044;-76
2022/09/22 11:58:00;;;;;;;8.02;1.98;;;;;;;20.12;50.33;100106.50;5006687;28;20750;-76